Time;durP1;ratioP1;P1;durP2;ratioP2;P2;SDS_P1;SDS_P2;PMS_P1;PMS_P2;Temp;Humidity;BMP_temperature;BMP_pressure;BME280_temperature;BME280_humidity;BME280_pressure;Samples;Min_cycle;Max_cycle;Signal;HPM_P1;HPM_P2
2023/09/09 00:00:52;;;;;;;23.35;16.63;;;23.20;84.80;;;;;;5056855;28;20040;-79
2023/09/09 00:03:21;;;;;;;24.83;17.02;;;23.20;84.60;;;;;;5055898;28;20052;-79
2023/09/09 00:05:48;;;;;;;16.77;12.80;;;23.20;84.20;;;;;;5056812;28;20043;-78
2023/09/09 00:08:15;;;;;;;19.35;14.07;;;23.00;84.40;;;;;;5055779;28;20017;-78
2023/09/09 00:10:41;;;;;;;22.38;15.63;;;22.80;85.30;;;;;;5056622;28;20056;-79
2023/09/09 00:13:07;;;;;;;23.92;17.40;;;22.80;86.60;;;;;;5056599;28;20033;-78
2023/09/09 00:15:33;;;;;;;23.23;17.60;;;22.80;85.90;;;;;;5039112;28;20032;-78
2023/09/09 00:18:00;;;;;;;23.90;16.83;;;22.80;86.10;;;;;;5056408;28;20049;-78
2023/09/09 00:20:36;;;;;;;24.60;16.67;;;22.80;86.00;;;;;;5055582;28;20025;-79
2023/09/09 00:23:09;;;;;;;24.40;16.15;;;22.90;85.70;;;;;;5039472;28;20029;-78
2023/09/09 00:25:36;;;;;;;22.98;16.38;;;22.90;85.10;;;;;;5055636;28;20029;-79
2023/09/09 00:28:02;;;;;;;22.90;16.23;;;22.90;84.90;;;;;;5056395;28;20029;-79
2023/09/09 00:30:28;;;;;;;25.25;17.13;;;22.90;85.00;;;;;;5056279;28;20029;-79
2023/09/09 00:32:54;;;;;;;25.67;17.38;;;22.80;85.10;;;;;;5055345;28;20025;-79
2023/09/09 00:35:20;;;;;;;24.15;16.50;;;22.80;85.10;;;;;;5056214;28;20022;-78
2023/09/09 00:37:45;;;;;;;22.90;16.15;;;22.80;84.90;;;;;;5056286;28;20030;-79
2023/09/09 00:40:11;;;;;;;23.50;16.17;;;22.80;84.90;;;;;;5055234;28;20085;-79
2023/09/09 00:42:37;;;;;;;20.38;14.23;;;22.80;84.80;;;;;;5056115;28;20235;-78
2023/09/09 00:45:03;;;;;;;21.38;14.95;;;22.70;84.60;;;;;;5056070;28;20025;-78
2023/09/09 00:47:29;;;;;;;20.55;15.80;;;22.60;85.00;;;;;;5055104;28;20068;-79
2023/09/09 00:49:55;;;;;;;18.77;14.68;;;22.60;85.50;;;;;;5055955;28;20026;-78
2023/09/09 00:52:21;;;;;;;26.15;15.65;;;22.60;85.80;;;;;;5038533;28;20060;-78
2023/09/09 00:54:47;;;;;;;19.05;13.93;;;22.60;85.90;;;;;;5055851;28;20030;-79
2023/09/09 00:57:16;;;;;;;18.33;13.13;;;22.60;85.60;;;;;;5054730;28;20041;-78
2023/09/09 00:59:41;;;;;;;17.23;12.90;;;22.60;85.70;;;;;;5054811;28;20021;-79
2023/09/09 01:02:07;;;;;;;18.15;14.13;;;22.60;85.40;;;;;;5055717;28;20041;-79
2023/09/09 01:04:33;;;;;;;18.77;13.23;;;22.50;85.30;;;;;;5038223;28;20045;-78
2023/09/09 01:07:03;;;;;;;21.70;15.13;;;22.50;85.40;;;;;;5055667;28;20033;-78
2023/09/09 01:09:33;;;;;;;25.05;17.23;;;22.50;85.40;;;;;;5055648;28;20048;-78
2023/09/09 01:12:00;;;;;;;25.48;17.42;;;22.50;85.60;;;;;;5055601;28;20022;-78
2023/09/09 01:14:26;;;;;;;20.70;16.05;;;22.40;85.70;;;;;;5055751;28;20053;-78
2023/09/09 01:16:53;;;;;;;22.00;15.93;;;22.50;85.60;;;;;;5055307;28;20050;-79
2023/09/09 01:19:21;;;;;;;21.02;15.95;;;22.50;85.30;;;;;;5055533;28;20021;-79
2023/09/09 01:21:47;;;;;;;21.00;15.63;;;22.40;85.60;;;;;;5055432;28;20029;-78
2023/09/09 01:24:15;;;;;;;21.55;14.60;;;22.40;85.60;;;;;;5054408;28;20022;-78
2023/09/09 01:26:42;;;;;;;17.40;12.88;;;22.30;85.10;;;;;;5055308;28;20048;-78
2023/09/09 01:29:08;;;;;;;20.75;14.82;;;22.20;84.60;;;;;;5054200;28;20476;-78
2023/09/09 01:31:33;;;;;;;20.73;15.13;;;22.20;84.90;;;;;;5054317;28;20029;-79
2023/09/09 01:33:59;;;;;;;24.58;16.35;;;22.20;85.10;;;;;;5054196;28;20083;-79
2023/09/09 01:36:24;;;;;;;26.63;17.40;;;22.10;85.20;;;;;;5054208;28;20029;-78
2023/09/09 01:38:50;;;;;;;24.60;17.25;;;22.10;85.30;;;;;;5054188;28;20025;-78
2023/09/09 01:41:16;;;;;;;24.23;17.50;;;22.20;85.60;;;;;;5055032;28;20033;-79
2023/09/09 01:43:41;;;;;;;21.08;15.93;;;22.20;85.80;;;;;;5053964;28;20026;-78
2023/09/09 01:46:07;;;;;;;22.83;15.20;;;22.20;85.50;;;;;;5037533;28;20021;-78
2023/09/09 01:48:32;;;;;;;21.15;16.25;;;22.20;85.50;;;;;;5054771;28;20392;-78
2023/09/09 01:50:58;;;;;;;24.83;18.02;;;22.10;85.40;;;;;;5053849;28;20030;-78
2023/09/09 01:53:24;;;;;;;23.27;16.70;;;22.10;85.50;;;;;;5053899;28;20034;-79
2023/09/09 01:55:49;;;;;;;27.08;17.38;;;22.10;85.50;;;;;;5053772;28;20037;-78
2023/09/09 01:58:15;;;;;;;24.70;16.90;;;22.00;85.70;;;;;;5053766;28;20030;-79
2023/09/09 02:00:42;;;;;;;19.67;14.70;;;21.90;85.90;;;;;;5054736;28;20049;-78
2023/09/09 02:03:08;;;;;;;24.55;17.48;;;21.90;86.00;;;;;;5054621;28;20040;-78
2023/09/09 02:05:34;;;;;;;26.45;18.30;;;22.00;86.90;;;;;;5054565;28;20163;-78
2023/09/09 02:07:59;;;;;;;26.45;19.05;;;22.00;86.00;;;;;;5052852;28;20037;-79
2023/09/09 02:10:25;;;;;;;28.70;18.45;;;22.00;85.90;;;;;;5053436;28;20036;-78
2023/09/09 02:12:50;;;;;;;25.02;18.23;;;22.00;85.80;;;;;;5054588;28;20094;-79
2023/09/09 02:15:16;;;;;;;27.13;18.70;;;22.00;85.70;;;;;;5053426;28;20029;-79
2023/09/09 02:17:42;;;;;;;25.23;18.02;;;22.00;85.80;;;;;;5053254;28;20127;-79
2023/09/09 02:20:08;;;;;;;26.73;18.70;;;21.90;85.80;;;;;;5053344;28;20040;-79
2023/09/09 02:22:34;;;;;;;23.45;17.67;;;21.90;86.00;;;;;;5053254;28;20044;-79
2023/09/09 02:24:59;;;;;;;25.15;17.73;;;21.80;86.00;;;;;;5054183;28;20029;-79
2023/09/09 02:27:25;;;;;;;25.98;18.83;;;21.80;85.90;;;;;;5054124;28;20036;-79
2023/09/09 02:29:51;;;;;;;26.02;18.85;;;21.80;85.90;;;;;;5052950;28;20045;-79
2023/09/09 02:32:17;;;;;;;23.70;18.00;;;21.80;85.90;;;;;;5054070;28;20029;-78
2023/09/09 02:34:43;;;;;;;26.15;18.70;;;21.80;85.90;;;;;;5053000;28;20020;-78
2023/09/09 02:37:17;;;;;;;28.50;18.25;;;21.80;85.80;;;;;;5052985;28;20049;-78
2023/09/09 02:39:46;;;;;;;27.42;19.48;;;21.70;85.90;;;;;;5054005;28;20036;-78
2023/09/09 02:42:15;;;;;;;25.42;16.70;;;21.70;85.90;;;;;;5053898;28;20021;-78
2023/09/09 02:44:42;;;;;;;22.67;16.83;;;21.70;85.60;;;;;;5052859;28;20037;-78
2023/09/09 02:47:08;;;;;;;22.52;17.17;;;21.60;85.30;;;;;;5052931;28;20033;-78
2023/09/09 02:49:34;;;;;;;20.85;16.23;;;21.60;85.30;;;;;;5053686;28;20029;-78
2023/09/09 02:52:00;;;;;;;24.88;17.33;;;21.50;85.40;;;;;;5053790;28;20029;-78
2023/09/09 02:54:26;;;;;;;24.00;17.38;;;21.50;85.60;;;;;;5053663;28;20022;-78
2023/09/09 02:56:51;;;;;;;26.73;18.55;;;21.50;85.70;;;;;;5052554;28;20084;-78
2023/09/09 02:59:17;;;;;;;24.63;18.23;;;21.50;85.90;;;;;;5052632;28;20037;-78
2023/09/09 03:01:43;;;;;;;25.48;18.33;;;21.50;86.00;;;;;;5052629;28;20040;-78
2023/09/09 03:04:10;;;;;;;24.20;15.38;;;21.50;85.90;;;;;;5053481;28;20025;-78
2023/09/09 03:06:35;;;;;;;16.17;12.60;;;21.50;85.40;;;;;;5053431;28;20083;-78
2023/09/09 03:09:01;;;;;;;16.35;12.75;;;21.40;85.10;;;;;;5052457;28;20029;-78
2023/09/09 03:11:27;;;;;;;15.75;12.55;;;21.40;85.50;;;;;;5035894;28;20030;-78
2023/09/09 03:13:52;;;;;;;18.23;13.15;;;21.30;85.50;;;;;;5036204;28;20025;-78
2023/09/09 03:16:18;;;;;;;22.05;14.73;;;21.20;85.90;;;;;;5053337;28;20029;-78
2023/09/09 03:18:44;;;;;;;20.33;14.82;;;21.20;86.00;;;;;;5052286;28;20060;-79
2023/09/09 03:21:10;;;;;;;21.83;16.40;;;21.20;86.10;;;;;;5051431;28;20037;-78
2023/09/09 03:23:36;;;;;;;25.70;19.50;;;21.20;86.30;;;;;;5053263;28;20053;-78
2023/09/09 03:26:02;;;;;;;24.55;17.02;;;21.20;86.40;;;;;;5052133;28;20022;-78
2023/09/09 03:28:27;;;;;;;22.77;15.98;;;21.30;86.30;;;;;;5053122;28;20022;-78
2023/09/09 03:30:58;;;;;;;24.52;16.60;;;21.30;86.20;;;;;;5052279;28;20041;-78
2023/09/09 03:33:24;;;;;;;22.65;16.40;;;21.20;85.80;;;;;;5052164;28;20018;-78
2023/09/09 03:35:50;;;;;;;21.70;15.82;;;21.10;86.00;;;;;;5052135;28;20029;-78
2023/09/09 03:38:15;;;;;;;21.70;15.43;;;21.10;86.10;;;;;;5053268;28;20025;-78
2023/09/09 03:40:44;;;;;;;22.40;16.70;;;21.00;86.10;;;;;;5052224;28;20037;-79
2023/09/09 03:43:11;;;;;;;17.63;15.05;;;20.90;86.60;;;;;;5053228;28;20084;-78
2023/09/09 03:45:36;;;;;;;18.13;14.52;;;20.90;87.00;;;;;;5035842;28;20127;-78
2023/09/09 03:48:04;;;;;;;23.80;15.63;;;20.90;87.10;;;;;;5051997;28;20030;-78
2023/09/09 03:50:30;;;;;;;22.30;15.68;;;20.90;87.20;;;;;;5052941;28;20022;-78
2023/09/09 03:52:56;;;;;;;20.40;16.45;;;20.90;87.40;;;;;;5052958;28;20503;-78
2023/09/09 03:55:21;;;;;;;23.95;16.58;;;20.90;87.30;;;;;;5052914;28;20029;-78
2023/09/09 03:57:47;;;;;;;26.45;18.48;;;20.90;87.20;;;;;;5051964;28;20029;-78
2023/09/09 04:00:13;;;;;;;25.63;17.50;;;20.80;87.40;;;;;;5052022;28;20036;-78
2023/09/09 04:02:39;;;;;;;22.20;17.05;;;20.70;87.60;;;;;;5052010;28;20098;-78
2023/09/09 04:05:06;;;;;;;24.95;17.15;;;20.70;88.10;;;;;;5052884;28;20397;-78
2023/09/09 04:07:35;;;;;;;23.17;16.30;;;20.70;88.30;;;;;;5051932;28;20037;-78
2023/09/09 04:10:02;;;;;;;26.42;17.13;;;20.70;88.40;;;;;;5052770;28;20022;-78
2023/09/09 04:12:27;;;;;;;30.25;18.67;;;20.70;89.40;;;;;;5052804;28;20025;-78
2023/09/09 04:14:53;;;;;;;31.38;20.42;;;20.80;88.50;;;;;;5035321;28;20139;-78
2023/09/09 04:17:19;;;;;;;29.25;18.73;;;20.70;88.60;;;;;;5052835;28;20053;-78
2023/09/09 04:19:44;;;;;;;24.77;17.38;;;20.60;88.50;;;;;;5052765;28;20033;-78
2023/09/09 04:22:10;;;;;;;25.20;17.25;;;20.60;88.60;;;;;;5052752;28;20100;-78
2023/09/09 04:24:35;;;;;;;26.23;17.55;;;20.50;88.30;;;;;;5035317;28;20025;-78
2023/09/09 04:27:01;;;;;;;23.67;17.65;;;20.60;88.30;;;;;;5052674;28;20528;-78
2023/09/09 04:29:27;;;;;;;23.17;16.80;;;20.60;88.00;;;;;;5052614;28;20025;-78
2023/09/09 04:31:52;;;;;;;25.48;18.10;;;20.60;88.00;;;;;;5054409;28;20033;-78
2023/09/09 04:34:18;;;;;;;29.60;20.23;;;20.60;88.00;;;;;;5055243;28;20149;-78
2023/09/09 04:36:45;;;;;;;32.13;21.38;;;20.60;87.80;;;;;;5055508;28;20025;-78
2023/09/09 04:39:13;;;;;;;31.13;20.23;;;20.70;87.70;;;;;;5055341;28;20025;-78
2023/09/09 04:41:40;;;;;;;30.85;20.55;;;20.60;87.40;;;;;;5055119;28;20028;-78
2023/09/09 04:44:05;;;;;;;32.38;20.90;;;20.60;87.20;;;;;;5056098;28;20041;-79
2023/09/09 04:46:31;;;;;;;33.08;21.63;;;20.60;87.00;;;;;;5056011;28;20033;-78
2023/09/09 04:48:57;;;;;;;30.40;20.08;;;20.50;87.00;;;;;;5055934;28;20037;-78
2023/09/09 04:51:22;;;;;;;30.75;19.88;;;20.50;86.90;;;;;;5038463;28;20049;-78
2023/09/09 04:53:48;;;;;;;33.33;21.75;;;20.50;86.90;;;;;;5054871;28;20113;-78
2023/09/09 04:56:14;;;;;;;31.35;21.52;;;20.50;87.00;;;;;;5038423;28;20203;-78
2023/09/09 04:58:40;;;;;;;32.58;21.95;;;20.40;87.10;;;;;;5054923;28;20032;-78
2023/09/09 05:01:06;;;;;;;34.17;22.35;;;20.50;87.30;;;;;;5054896;28;20029;-78
2023/09/09 05:03:32;;;;;;;31.75;22.27;;;20.50;87.40;;;;;;5054881;28;20112;-78
2023/09/09 05:05:57;;;;;;;36.25;23.50;;;20.40;87.40;;;;;;5055713;28;20044;-78
2023/09/09 05:08:23;;;;;;;35.78;24.17;;;20.50;87.90;;;;;;5055677;28;20025;-78
2023/09/09 05:10:48;;;;;;;34.75;23.20;;;20.40;87.90;;;;;;5055571;28;20044;-78
2023/09/09 05:13:14;;;;;;;37.28;24.50;;;20.40;87.90;;;;;;5038054;28;20029;-78
2023/09/09 05:15:40;;;;;;;36.17;23.70;;;20.40;88.20;;;;;;5054661;28;20021;-78
2023/09/09 05:18:05;;;;;;;31.42;21.73;;;20.40;88.50;;;;;;5037815;28;20095;-77
2023/09/09 05:20:31;;;;;;;31.08;21.13;;;20.40;88.40;;;;;;5055420;28;20038;-78
2023/09/09 05:22:56;;;;;;;33.80;22.65;;;20.40;88.10;;;;;;5054418;28;20030;-78
2023/09/09 05:25:22;;;;;;;39.15;24.90;;;20.40;88.30;;;;;;5054456;28;20034;-78
2023/09/09 05:27:48;;;;;;;30.85;22.00;;;20.30;88.90;;;;;;5037835;28;20029;-78
2023/09/09 05:30:14;;;;;;;32.95;23.40;;;20.20;89.40;;;;;;5037637;28;20026;-78
2023/09/09 05:32:40;;;;;;;25.30;18.15;;;20.20;89.40;;;;;;5054319;28;20041;-78
2023/09/09 05:35:06;;;;;;;28.50;18.75;;;20.10;89.20;;;;;;5037547;28;20037;-79
2023/09/09 05:37:32;;;;;;;26.10;18.13;;;20.00;89.50;;;;;;5054162;28;20029;-78
2023/09/09 05:39:58;;;;;;;34.72;21.65;;;20.00;89.60;;;;;;5037607;28;20036;-79
2023/09/09 05:42:23;;;;;;;37.80;23.70;;;20.00;89.70;;;;;;5036912;28;20104;-78
2023/09/09 05:44:49;;;;;;;38.78;23.90;;;20.10;89.80;;;;;;5053648;28;20044;-78
2023/09/09 05:47:15;;;;;;;37.58;22.85;;;20.10;89.90;;;;;;5054089;28;20045;-79
2023/09/09 05:49:40;;;;;;;48.75;24.95;;;20.10;89.90;;;;;;5054011;28;20044;-78
2023/09/09 05:52:07;;;;;;;44.65;26.05;;;20.10;90.20;;;;;;5037355;28;20026;-78
2023/09/09 05:54:32;;;;;;;45.60;26.13;;;19.90;90.50;;;;;;5037284;28;20025;-78
2023/09/09 05:56:58;;;;;;;44.95;26.20;;;19.90;90.80;;;;;;5053829;28;20041;-79
2023/09/09 05:59:24;;;;;;;44.50;26.38;;;19.90;90.90;;;;;;5037279;28;20033;-78
2023/09/09 06:01:50;;;;;;;41.33;26.42;;;20.00;91.00;;;;;;5053634;28;20021;-78
2023/09/09 06:04:16;;;;;;;38.80;26.13;;;20.00;91.00;;;;;;5053553;28;20025;-78
2023/09/09 06:06:45;;;;;;;43.22;25.70;;;20.00;91.20;;;;;;5053574;28;20033;-79
2023/09/09 06:09:11;;;;;;;39.30;26.23;;;20.00;91.40;;;;;;5053572;28;20025;-80
2023/09/09 06:11:37;;;;;;;42.85;26.80;;;19.90;91.60;;;;;;5053454;28;20017;-79
2023/09/09 06:14:03;;;;;;;40.13;25.75;;;20.00;91.70;;;;;;5053341;28;20109;-79
2023/09/09 06:16:29;;;;;;;39.90;26.52;;;20.10;91.60;;;;;;5036644;28;20049;-79
2023/09/09 06:18:54;;;;;;;41.65;26.40;;;20.10;91.50;;;;;;5036791;28;20077;-79
2023/09/09 06:21:21;;;;;;;45.13;27.85;;;20.20;91.50;;;;;;5053261;28;20060;-79
2023/09/09 06:23:47;;;;;;;42.35;26.60;;;20.20;91.50;;;;;;5053373;28;20025;-79
2023/09/09 06:26:12;;;;;;;44.58;29.38;;;20.20;91.50;;;;;;5054265;28;20021;-79
2023/09/09 06:28:38;;;;;;;41.58;28.95;;;20.30;91.60;;;;;;5053097;28;20075;-79
2023/09/09 06:31:04;;;;;;;44.75;29.25;;;20.30;91.60;;;;;;5053037;28;20544;-79
2023/09/09 06:33:29;;;;;;;43.97;30.10;;;20.40;91.60;;;;;;5053984;28;20026;-78
2023/09/09 06:35:55;;;;;;;45.95;30.80;;;20.50;91.60;;;;;;5054154;28;20029;-78
2023/09/09 06:38:21;;;;;;;48.13;31.50;;;20.50;91.60;;;;;;5036549;28;20030;-78
2023/09/09 06:40:47;;;;;;;45.70;31.50;;;20.60;91.70;;;;;;5053896;28;20025;-77
2023/09/09 06:43:16;;;;;;;54.72;33.70;;;20.60;91.70;;;;;;5053854;28;20037;-77
2023/09/09 06:45:41;;;;;;;57.33;36.45;;;20.70;91.90;;;;;;5052874;28;20026;-78
2023/09/09 06:48:07;;;;;;;56.00;35.88;;;20.70;92.00;;;;;;5052952;28;20029;-78
2023/09/09 06:50:33;;;;;;;61.83;39.20;;;20.70;92.10;;;;;;5036159;28;20029;-79
2023/09/09 06:52:58;;;;;;;61.40;39.00;;;20.70;92.20;;;;;;5036228;28;20045;-78
2023/09/09 06:55:24;;;;;;;66.35;40.80;;;20.80;92.30;;;;;;5053459;28;20032;-79
2023/09/09 06:57:50;;;;;;;74.30;41.15;;;20.80;92.80;;;;;;5036113;28;20068;-79
2023/09/09 07:00:16;;;;;;;73.00;42.13;;;20.80;92.60;;;;;;5052656;28;20042;-81
2023/09/09 07:02:42;;;;;;;76.47;42.45;;;20.70;92.80;;;;;;5053679;28;20065;-80
2023/09/09 07:05:08;;;;;;;83.72;46.53;;;20.70;92.90;;;;;;5052676;28;20060;-80
2023/09/09 07:07:33;;;;;;;92.57;48.20;;;20.70;93.20;;;;;;5052526;28;20034;-75
2023/09/09 07:09:59;;;;;;;86.40;47.33;;;20.70;93.40;;;;;;5053331;28;20038;-75
2023/09/09 07:12:25;;;;;;;95.20;49.00;;;20.70;93.40;;;;;;5052489;28;20022;-74
2023/09/09 07:14:50;;;;;;;93.95;50.63;;;20.80;93.50;;;;;;5052387;28;20034;-74
2023/09/09 07:17:16;;;;;;;105.10;50.85;;;20.70;93.60;;;;;;5035764;28;20059;-73
2023/09/09 07:19:42;;;;;;;98.30;51.90;;;20.70;93.60;;;;;;5035792;28;20056;-75
2023/09/09 07:22:07;;;;;;;99.47;51.53;;;20.80;93.70;;;;;;5035718;28;20030;-74
2023/09/09 07:24:33;;;;;;;95.43;52.28;;;20.90;93.70;;;;;;5052374;28;20081;-74
2023/09/09 07:27:04;;;;;;;92.93;50.50;;;20.90;93.70;;;;;;5052161;28;20088;-74
2023/09/09 07:29:30;;;;;;;99.13;53.38;;;21.00;93.70;;;;;;5053153;28;20028;-74
2023/09/09 07:31:55;;;;;;;99.63;52.08;;;21.00;93.70;;;;;;5052271;28;20037;-75
2023/09/09 07:34:21;;;;;;;101.70;54.08;;;21.10;93.70;;;;;;5035561;28;20052;-74
2023/09/09 07:36:47;;;;;;;105.03;53.65;;;21.20;93.80;;;;;;5053046;28;20029;-73
2023/09/09 07:39:14;;;;;;;103.57;52.35;;;21.20;93.80;;;;;;5052203;28;20025;-74
2023/09/09 07:41:39;;;;;;;106.68;55.50;;;21.20;93.80;;;;;;5053110;28;20035;-79
2023/09/09 07:44:06;;;;;;;107.85;55.22;;;21.20;93.90;;;;;;5035638;28;20037;-78
2023/09/09 07:46:32;;;;;;;109.70;54.80;;;21.20;93.90;;;;;;5052045;28;20132;-78
2023/09/09 07:48:58;;;;;;;106.95;55.72;;;21.30;94.00;;;;;;5035350;28;20037;-78
2023/09/09 07:51:23;;;;;;;107.72;56.22;;;21.30;94.00;;;;;;5051997;28;20060;-78
2023/09/09 07:53:49;;;;;;;107.80;56.40;;;21.40;93.90;;;;;;5035418;28;20018;-78
2023/09/09 07:56:15;;;;;;;106.43;56.03;;;21.40;93.90;;;;;;5052953;28;20037;-78
2023/09/09 07:58:40;;;;;;;109.38;56.45;;;21.50;93.90;;;;;;5035432;28;20033;-78
2023/09/09 08:01:08;;;;;;;115.88;58.60;;;21.50;93.90;;;;;;5051913;28;20021;-78
2023/09/09 08:03:34;;;;;;;102.85;55.33;;;21.60;93.90;;;;;;5051892;28;20060;-77
2023/09/09 08:06:06;;;;;;;99.95;56.25;;;21.70;93.90;;;;;;5035833;28;20025;-79
2023/09/09 08:08:38;;;;;;;102.43;56.30;;;21.80;94.30;;;;;;5056777;28;20021;-78
2023/09/09 08:11:04;;;;;;;99.75;54.83;;;21.80;93.90;;;;;;5055861;28;20093;-79
2023/09/09 08:13:30;;;;;;;107.00;58.30;;;21.90;93.90;;;;;;5055711;28;20037;-78
2023/09/09 08:16:00;;;;;;;105.55;58.65;;;21.90;93.90;;;;;;5056676;28;20017;-78
2023/09/09 08:18:26;;;;;;;102.35;57.00;;;22.00;94.10;;;;;;5055431;28;20136;-78
2023/09/09 08:20:51;;;;;;;94.00;54.47;;;22.00;94.10;;;;;;5039145;28;20033;-79
2023/09/09 08:23:18;;;;;;;91.03;52.85;;;22.10;94.00;;;;;;5055563;28;20033;-79
2023/09/09 08:25:44;;;;;;;83.07;49.72;;;22.20;93.90;;;;;;5055538;28;20022;-78
2023/09/09 08:28:09;;;;;;;81.28;49.58;;;22.30;93.70;;;;;;5038992;28;20052;-79
2023/09/09 08:30:35;;;;;;;80.75;48.28;;;22.40;93.60;;;;;;5055384;28;20074;-81
2023/09/09 08:33:01;;;;;;;76.78;45.83;;;22.50;93.40;;;;;;5056301;28;20017;-80
2023/09/09 08:35:30;;;;;;;71.88;43.83;;;22.50;93.20;;;;;;5055201;28;20048;-79
2023/09/09 08:37:55;;;;;;;73.03;43.13;;;22.60;93.20;;;;;;5055161;28;20187;-79
2023/09/09 08:40:21;;;;;;;69.50;42.83;;;22.60;93.00;;;;;;5055175;28;20022;-74
2023/09/09 08:43:16;;;;;;;71.50;43.22;;;22.70;92.90;;;;;;5056117;28;20116;-74
2023/09/09 08:46:09;;;;;;;74.32;44.17;;;22.70;92.60;;;;;;5054624;28;20033;-74
2023/09/09 08:48:37;;;;;;;62.92;39.33;;;22.80;92.60;;;;;;5056167;28;20036;-74
2023/09/09 08:51:04;;;;;;;61.72;40.53;;;22.90;92.60;;;;;;5055944;28;20028;-73
2023/09/09 08:53:31;;;;;;;62.30;40.00;;;23.00;92.50;;;;;;5055052;28;20052;-75
2023/09/09 08:55:58;;;;;;;62.78;40.13;;;23.00;92.40;;;;;;5054856;28;20061;-75
2023/09/09 08:58:25;;;;;;;65.45;38.95;;;23.10;92.20;;;;;;5055874;28;20022;-75
2023/09/09 09:00:51;;;;;;;63.65;39.72;;;23.20;91.80;;;;;;5055753;28;20032;-75
2023/09/09 09:03:18;;;;;;;62.53;38.28;;;23.30;91.70;;;;;;5055726;28;20040;-76
2023/09/09 09:05:44;;;;;;;65.72;38.58;;;23.30;91.50;;;;;;5055621;28;20109;-74
2023/09/09 09:08:10;;;;;;;63.95;38.80;;;23.40;91.50;;;;;;5055665;28;20053;-75
2023/09/09 09:10:37;;;;;;;64.25;40.45;;;23.40;91.50;;;;;;5054622;28;20085;-75
2023/09/09 09:13:04;;;;;;;64.53;37.80;;;23.50;91.50;;;;;;5055618;28;20082;-75
2023/09/09 09:15:32;;;;;;;65.80;39.63;;;23.60;91.50;;;;;;5054578;28;20380;-76
2023/09/09 09:17:59;;;;;;;64.60;39.03;;;23.70;91.40;;;;;;5055109;28;20053;-75
2023/09/09 09:20:25;;;;;;;65.65;40.08;;;23.80;91.50;;;;;;5055480;28;20063;-75
2023/09/09 09:22:51;;;;;;;54.08;34.92;;;23.90;91.20;;;;;;5055396;28;20026;-75
2023/09/09 09:25:23;;;;;;;61.38;37.80;;;23.90;91.00;;;;;;5054383;28;20025;-75
2023/09/09 09:27:49;;;;;;;62.15;37.88;;;23.90;91.10;;;;;;5054265;28;20021;-76
2023/09/09 09:30:21;;;;;;;61.90;38.88;;;23.90;91.20;;;;;;5054275;28;20038;-74
2023/09/09 09:32:54;;;;;;;59.75;37.05;;;24.10;91.20;;;;;;5055242;28;20021;-75
2023/09/09 09:35:30;;;;;;;60.72;37.50;;;24.30;91.00;;;;;;5054111;28;20037;-74
2023/09/09 09:37:57;;;;;;;66.00;40.55;;;24.40;91.00;;;;;;5038230;28;20021;-75
2023/09/09 09:40:24;;;;;;;58.90;36.83;;;24.50;90.90;;;;;;5055060;28;20032;-76
2023/09/09 09:42:50;;;;;;;59.95;36.92;;;24.60;90.80;;;;;;5054140;28;20081;-75
2023/09/09 09:45:17;;;;;;;61.53;37.92;;;24.70;90.40;;;;;;5054068;28;20021;-75
2023/09/09 09:47:47;;;;;;;58.72;36.17;;;24.80;90.70;;;;;;5054906;28;20026;-74
2023/09/09 09:50:28;;;;;;;57.65;34.58;;;24.80;90.20;;;;;;5053815;28;20029;-74
2023/09/09 09:53:02;;;;;;;53.22;32.90;;;25.00;90.10;;;;;;5054859;28;20080;-76
2023/09/09 09:55:29;;;;;;;55.97;33.13;;;25.20;90.00;;;;;;5053757;28;20032;-74
2023/09/09 09:58:00;;;;;;;46.42;30.23;;;25.30;89.40;;;;;;5054722;28;20026;-74
2023/09/09 10:00:27;;;;;;;48.92;32.30;;;25.50;87.70;;;;;;5054822;28;20036;-75
2023/09/09 10:02:57;;;;;;;42.65;28.52;;;25.50;87.90;;;;;;5053712;28;20052;-75
2023/09/09 10:05:25;;;;;;;45.58;28.95;;;25.60;88.10;;;;;;5054631;28;20025;-74
2023/09/09 10:08:05;;;;;;;45.78;29.95;;;25.80;87.60;;;;;;5054517;28;20072;-75
2023/09/09 10:10:35;;;;;;;45.03;28.98;;;25.90;86.30;;;;;;5054417;28;20029;-74
2023/09/09 10:13:29;;;;;;;48.25;29.75;;;26.00;86.00;;;;;;5053533;28;20060;-75
2023/09/09 10:15:55;;;;;;;34.13;24.67;;;26.00;85.60;;;;;;5050342;28;20097;-74
2023/09/09 10:18:23;;;;;;;36.17;23.70;;;26.10;85.70;;;;;;5054189;28;20057;-74
2023/09/09 10:20:51;;;;;;;37.85;25.15;;;26.20;85.10;;;;;;5053247;28;20029;-74
2023/09/09 10:23:18;;;;;;;31.90;21.67;;;26.30;84.70;;;;;;5053202;28;20032;-75
2023/09/09 10:25:47;;;;;;;35.97;23.33;;;26.40;83.60;;;;;;5053399;28;20083;-73
2023/09/09 10:28:13;;;;;;;39.00;27.30;;;26.50;82.70;;;;;;5054167;28;20021;-74
2023/09/09 10:30:39;;;;;;;40.17;27.63;;;26.70;83.00;;;;;;5052463;28;20037;-74
2023/09/09 10:33:06;;;;;;;39.58;26.98;;;26.70;82.90;;;;;;5054022;28;20112;-74
2023/09/09 10:35:33;;;;;;;40.70;28.13;;;26.80;82.70;;;;;;5053960;28;20020;-77
2023/09/09 10:38:02;;;;;;;38.00;26.52;;;26.90;82.10;;;;;;5053972;28;20029;-77
2023/09/09 10:40:28;;;;;;;34.88;22.38;;;27.00;82.00;;;;;;5053947;28;20033;-78
2023/09/09 10:42:54;;;;;;;33.60;23.08;;;27.10;82.40;;;;;;5053915;28;20064;-78
2023/09/09 10:45:22;;;;;;;34.85;23.38;;;27.10;81.80;;;;;;5036499;28;20034;-78
2023/09/09 10:47:54;;;;;;;34.97;23.17;;;27.20;81.50;;;;;;5052727;28;20041;-78
2023/09/09 10:50:20;;;;;;;39.58;25.38;;;27.20;81.40;;;;;;5052760;28;20022;-77
2023/09/09 10:52:45;;;;;;;33.97;25.30;;;27.30;81.70;;;;;;5052686;28;20064;-77
2023/09/09 10:55:14;;;;;;;39.83;26.60;;;27.40;80.90;;;;;;5052602;28;20097;-78
2023/09/09 10:57:40;;;;;;;40.30;26.55;;;27.40;79.90;;;;;;5053681;28;20028;-78
2023/09/09 11:00:09;;;;;;;34.45;23.90;;;27.40;79.40;;;;;;5053662;28;20022;-78
2023/09/09 11:02:47;;;;;;;32.20;22.20;;;27.40;80.10;;;;;;5036785;28;20026;-78
2023/09/09 11:05:15;;;;;;;35.13;23.55;;;27.60;80.80;;;;;;5053524;28;20036;-78
2023/09/09 11:07:44;;;;;;;31.17;21.35;;;27.60;79.10;;;;;;5053451;28;20026;-78
2023/09/09 11:10:16;;;;;;;30.27;20.92;;;27.70;79.20;;;;;;5052545;28;20025;-78
2023/09/09 11:12:56;;;;;;;29.37;19.93;;;27.80;79.70;;;;;;5053552;28;20022;-78
2023/09/09 11:15:25;;;;;;;28.33;20.30;;;27.80;79.30;;;;;;5053437;28;20252;-78
2023/09/09 11:17:51;;;;;;;24.25;17.40;;;27.80;78.60;;;;;;5053190;28;20604;-78
2023/09/09 11:20:20;;;;;;;27.40;17.77;;;27.90;78.30;;;;;;5053339;28;20055;-78
2023/09/09 11:22:46;;;;;;;24.98;17.70;;;27.90;76.80;;;;;;5053319;28;20035;-78
2023/09/09 11:25:15;;;;;;;23.75;15.48;;;28.00;76.00;;;;;;5052433;28;20492;-78
2023/09/09 11:27:41;;;;;;;22.48;16.42;;;28.10;76.30;;;;;;5053302;28;20051;-78
2023/09/09 11:30:07;;;;;;;24.30;15.90;;;28.10;75.40;;;;;;5053212;28;20029;-78
2023/09/09 11:32:33;;;;;;;24.70;18.15;;;28.20;75.50;;;;;;5052307;28;20045;-78
2023/09/09 11:34:58;;;;;;;26.52;17.98;;;28.30;75.40;;;;;;5051993;28;20041;-78
2023/09/09 11:37:28;;;;;;;25.23;18.17;;;28.40;75.60;;;;;;5053274;28;20018;-77
2023/09/09 11:39:54;;;;;;;30.88;20.67;;;28.40;74.90;;;;;;5035635;28;20033;-78
2023/09/09 11:42:20;;;;;;;32.53;21.92;;;28.50;74.70;;;;;;5055886;28;20048;-78
2023/09/09 11:44:46;;;;;;;27.33;19.90;;;28.50;73.60;;;;;;5057251;28;20093;-78
2023/09/09 11:47:14;;;;;;;27.05;18.95;;;28.40;75.00;;;;;;5057267;28;20025;-78
2023/09/09 11:49:43;;;;;;;27.58;19.95;;;28.40;75.40;;;;;;5057150;28;20030;-79
2023/09/09 11:52:09;;;;;;;25.95;18.40;;;28.50;75.10;;;;;;5056171;28;20116;-79
2023/09/09 11:54:36;;;;;;;32.90;21.83;;;28.60;75.10;;;;;;5056179;28;20037;-78
2023/09/09 11:57:08;;;;;;;35.63;23.92;;;28.70;75.40;;;;;;5057066;28;20017;-78
2023/09/09 11:59:51;;;;;;;34.28;23.40;;;28.70;75.50;;;;;;5055994;28;20029;-78
2023/09/09 12:02:24;;;;;;;34.08;24.10;;;28.80;76.10;;;;;;5056926;28;20089;-78
2023/09/09 12:04:58;;;;;;;33.63;23.30;;;28.80;76.40;;;;;;5055928;28;20029;-78
2023/09/09 12:07:28;;;;;;;35.78;24.33;;;28.80;76.20;;;;;;5056866;28;20021;-78
2023/09/09 12:09:54;;;;;;;36.30;25.67;;;28.80;74.80;;;;;;5056727;28;20056;-78
2023/09/09 12:12:21;;;;;;;31.85;22.15;;;28.70;73.70;;;;;;5055765;28;20024;-78
2023/09/09 12:14:48;;;;;;;34.58;25.70;;;28.70;74.80;;;;;;5056732;28;20085;-78
2023/09/09 12:17:14;;;;;;;33.42;23.42;;;28.60;73.20;;;;;;5055783;28;20081;-78
2023/09/09 12:19:39;;;;;;;27.95;18.70;;;28.60;74.50;;;;;;5055510;28;20057;-78
2023/09/09 12:22:06;;;;;;;23.77;17.83;;;28.70;74.90;;;;;;5039109;28;20400;-78
2023/09/09 12:24:41;;;;;;;30.42;19.83;;;28.80;74.50;;;;;;5039187;28;20022;-78